createdAt,value
2018-07-24T00:01:47.335Z,73.40
2018-07-24T00:04:15.820Z,73.10
2018-07-24T00:06:44.235Z,73.10
2018-07-24T00:09:12.680Z,74.00
2018-07-24T00:11:41.087Z,73.80
2018-07-24T00:14:09.575Z,73.40
2018-07-24T00:16:38.861Z,73.60
2018-07-24T00:19:07.300Z,73.50
2018-07-24T00:21:35.722Z,73.10
2018-07-24T00:24:04.207Z,74.00
2018-07-24T00:26:33.272Z,74.60
2018-07-24T00:29:01.716Z,75.60
2018-07-24T00:31:30.177Z,75.20
2018-07-24T00:33:58.608Z,75.40
2018-07-24T00:36:27.068Z,75.30
2018-07-24T00:38:55.540Z,76.70
2018-07-24T00:41:23.996Z,76.20
2018-07-24T00:43:52.427Z,76.00
2018-07-24T00:46:20.955Z,75.90
2018-07-24T00:48:49.357Z,75.80
2018-07-24T00:51:17.812Z,75.60
2018-07-24T00:53:46.240Z,75.70
2018-07-24T00:56:14.694Z,75.40
2018-07-24T00:58:43.088Z,75.80
2018-07-24T01:01:11.655Z,75.30
2018-07-24T01:03:40.069Z,74.80
2018-07-24T01:06:08.484Z,75.30
2018-07-24T01:08:37.060Z,75.20
2018-07-24T01:11:05.522Z,75.40
2018-07-24T01:13:34.506Z,75.30
2018-07-24T01:16:02.947Z,75.80
2018-07-24T01:18:31.409Z,75.60
2018-07-24T01:20:59.837Z,75.70
2018-07-24T01:23:28.292Z,75.90
2018-07-24T01:25:56.785Z,76.40
2018-07-24T01:28:25.188Z,76.40
2018-07-24T01:30:53.592Z,76.60
2018-07-24T01:33:22.077Z,76.80
2018-07-24T01:35:50.546Z,77.10
2018-07-24T01:38:18.993Z,77.50
2018-07-24T01:40:47.456Z,78.20
2018-07-24T01:43:15.876Z,79.10
2018-07-24T01:45:44.343Z,79.30
2018-07-24T01:48:12.752Z,78.90
2018-07-24T01:50:41.175Z,79.20
2018-07-24T01:53:09.599Z,79.30
2018-07-24T01:55:38.037Z,79.80
2018-07-24T01:58:06.481Z,79.10
2018-07-24T02:00:34.862Z,79.70
2018-07-24T02:03:03.301Z,80.00
2018-07-24T02:05:31.764Z,80.40
2018-07-24T02:08:00.265Z,80.40
2018-07-24T02:10:28.697Z,80.60
2018-07-24T02:12:57.749Z,81.00
2018-07-24T02:15:26.259Z,81.30
2018-07-24T02:17:54.704Z,81.20
2018-07-24T02:20:23.204Z,81.20
2018-07-24T02:22:51.647Z,80.90
2018-07-24T02:25:20.079Z,80.90
2018-07-24T02:27:48.503Z,81.60
2018-07-24T02:30:16.912Z,81.60
2018-07-24T02:32:45.905Z,81.20
2018-07-24T02:35:14.366Z,81.60
2018-07-24T02:37:42.769Z,81.80
2018-07-24T02:40:11.214Z,81.80
2018-07-24T02:42:40.380Z,81.80
2018-07-24T02:45:09.333Z,81.80
2018-07-24T02:47:37.781Z,82.20
2018-07-24T02:50:06.577Z,82.50
2018-07-24T02:52:35.021Z,83.10
2018-07-24T02:55:03.469Z,82.90
2018-07-24T02:57:31.984Z,83.30
2018-07-24T03:00:00.433Z,83.70
2018-07-24T03:02:28.881Z,84.20
2018-07-24T03:04:57.456Z,84.40
2018-07-24T03:07:25.836Z,84.90
2018-07-24T03:09:54.228Z,85.50
2018-07-24T03:12:22.648Z,85.40
2018-07-24T03:14:51.648Z,85.40
2018-07-24T03:17:20.092Z,83.50
2018-07-24T03:19:48.510Z,84.00
2018-07-24T03:22:16.940Z,83.90
2018-07-24T03:24:45.350Z,83.70
2018-07-24T03:27:13.840Z,83.40
2018-07-24T03:29:42.257Z,83.10
2018-07-24T03:32:10.794Z,82.70
2018-07-24T03:34:39.336Z,82.70
2018-07-24T03:37:07.755Z,82.80
2018-07-24T03:39:36.288Z,82.90
2018-07-24T03:42:04.692Z,82.60
2018-07-24T03:44:33.094Z,82.30
2018-07-24T03:47:01.560Z,81.20
2018-07-24T03:49:29.993Z,81.80
2018-07-24T03:51:58.376Z,81.40
2018-07-24T03:54:27.507Z,81.40
2018-07-24T03:56:56.053Z,80.80
2018-07-24T03:59:24.685Z,80.90
2018-07-24T04:01:53.189Z,80.90
2018-07-24T04:04:21.645Z,81.50
2018-07-24T04:06:50.065Z,80.30
2018-07-24T04:09:18.514Z,80.90
2018-07-24T04:11:46.953Z,80.80
2018-07-24T04:14:15.372Z,80.20
2018-07-24T04:16:44.500Z,80.20
2018-07-24T04:19:12.917Z,80.00
2018-07-24T04:21:41.338Z,80.50
2018-07-24T04:24:09.825Z,79.90
2018-07-24T04:26:38.269Z,80.10
2018-07-24T04:29:06.677Z,80.60
2018-07-24T04:31:35.137Z,79.90
2018-07-24T04:34:03.561Z,80.10
2018-07-24T04:36:31.994Z,79.80
2018-07-24T04:39:00.406Z,79.50
2018-07-24T04:41:28.884Z,78.80
2018-07-24T04:43:57.905Z,79.30
2018-07-24T04:46:26.343Z,80.00
2018-07-24T04:48:54.787Z,80.10
2018-07-24T04:51:23.225Z,81.00
2018-07-24T04:53:52.376Z,81.00
2018-07-24T04:56:20.803Z,80.90
2018-07-24T04:58:49.244Z,81.50
2018-07-24T05:01:17.808Z,82.30
2018-07-24T05:03:46.266Z,82.70
2018-07-24T05:06:14.715Z,82.90
2018-07-24T05:08:43.217Z,83.10
2018-07-24T05:11:11.628Z,82.80
2018-07-24T05:13:40.140Z,81.70
2018-07-24T05:16:08.560Z,81.90
2018-07-24T05:18:36.965Z,82.00
2018-07-24T05:21:07.095Z,82.20
2018-07-24T05:23:35.547Z,82.10
2018-07-24T05:26:03.964Z,81.40
2018-07-24T05:28:32.493Z,82.20
2018-07-24T05:31:01.388Z,80.90
2018-07-24T05:33:29.857Z,81.50
2018-07-24T05:35:58.264Z,81.00
2018-07-24T05:38:26.720Z,80.70
2018-07-24T05:40:55.220Z,79.50
2018-07-24T05:43:23.624Z,78.70
2018-07-24T05:45:52.091Z,79.50
2018-07-24T05:48:20.630Z,80.50
2018-07-24T05:50:49.060Z,79.80
2018-07-24T05:53:17.540Z,79.10
2018-07-24T05:55:46.006Z,79.70
2018-07-24T05:58:14.416Z,78.40
2018-07-24T06:00:42.964Z,78.20
2018-07-24T06:03:11.400Z,77.20
2018-07-24T06:05:39.897Z,76.60
2018-07-24T06:08:08.377Z,76.70
2018-07-24T06:10:36.821Z,76.60
2018-07-24T06:13:05.329Z,77.10
2018-07-24T06:15:33.769Z,77.40
2018-07-24T06:18:02.201Z,76.70
2018-07-24T06:20:30.706Z,77.40
2018-07-24T06:22:59.101Z,76.70
2018-07-24T06:25:27.517Z,76.80
2018-07-24T06:27:57.149Z,77.10
2018-07-24T06:30:25.623Z,76.10
2018-07-24T06:32:54.041Z,76.30
2018-07-24T06:35:22.473Z,74.40
2018-07-24T06:37:51.184Z,74.30
2018-07-24T06:40:19.707Z,73.40
2018-07-24T06:42:48.174Z,72.50
2018-07-24T06:45:16.681Z,73.30
2018-07-24T06:47:45.150Z,73.20
2018-07-24T06:50:13.571Z,73.10
2018-07-24T06:52:42.060Z,72.60
2018-07-24T06:55:10.537Z,72.40
2018-07-24T06:57:39.553Z,72.40
2018-07-24T07:00:08.021Z,72.50
2018-07-24T07:02:36.516Z,72.00
2018-07-24T07:05:05.089Z,71.70
2018-07-24T07:07:33.524Z,71.10
2018-07-24T07:10:01.947Z,70.10
2018-07-24T07:12:30.462Z,70.00
2018-07-24T07:14:59.000Z,70.00
2018-07-24T07:17:27.429Z,70.60
2018-07-24T07:19:56.223Z,70.20
2018-07-24T07:22:25.000Z,70.20
2018-07-24T07:24:53.428Z,69.30
2018-07-24T07:27:21.907Z,68.10
2018-07-24T07:29:50.827Z,68.00
2018-07-24T07:32:19.397Z,68.10
2018-07-24T07:34:47.816Z,66.50
2018-07-24T07:37:16.258Z,66.10
2018-07-24T07:39:44.880Z,65.40
2018-07-24T07:42:13.313Z,64.80
2018-07-24T07:44:41.817Z,63.60
2018-07-24T07:47:10.259Z,63.00
2018-07-24T07:49:38.714Z,62.10
2018-07-24T07:52:07.217Z,62.60
2018-07-24T07:54:35.649Z,59.90
2018-07-24T07:57:04.119Z,60.10
2018-07-24T07:59:32.674Z,61.10
2018-07-24T08:02:01.233Z,61.80
2018-07-24T08:06:57.806Z,58.50
2018-07-24T08:09:26.368Z,57.40
2018-07-24T08:11:54.993Z,57.70
2018-07-24T08:14:23.529Z,57.80
2018-07-24T08:16:52.001Z,56.20
2018-07-24T08:19:20.452Z,55.70
2018-07-24T08:21:48.886Z,55.30
2018-07-24T08:24:17.367Z,53.80
2018-07-24T08:26:45.793Z,54.40
2018-07-24T08:29:14.202Z,54.00
2018-07-24T08:31:43.425Z,53.70
2018-07-24T08:34:11.991Z,53.20
2018-07-24T08:36:40.851Z,51.00
2018-07-24T08:39:11.005Z,50.30
2018-07-24T08:41:39.632Z,48.40
2018-07-24T08:44:08.057Z,49.80
2018-07-24T08:46:36.512Z,49.60
2018-07-24T08:49:05.092Z,50.10
2018-07-24T08:51:33.604Z,48.70
2018-07-24T08:54:02.828Z,48.10
2018-07-24T08:56:31.200Z,46.70
2018-07-24T08:58:59.873Z,47.80
2018-07-24T09:01:28.354Z,47.10
2018-07-24T09:03:56.892Z,45.40
2018-07-24T09:06:25.316Z,45.70
2018-07-24T09:08:53.739Z,46.20
2018-07-24T09:11:22.268Z,45.70
2018-07-24T09:13:50.844Z,46.50
2018-07-24T09:16:19.317Z,45.30
2018-07-24T09:18:47.836Z,44.90
2018-07-24T09:21:16.644Z,44.70
2018-07-24T09:23:45.094Z,44.00
2018-07-24T09:26:13.881Z,44.40
2018-07-24T09:28:42.369Z,45.00
2018-07-24T09:31:11.561Z,45.00
2018-07-24T09:33:39.997Z,43.90
2018-07-24T09:36:08.439Z,43.00
2018-07-24T09:38:37.006Z,43.00
2018-07-24T09:41:06.459Z,41.50
2018-07-24T09:43:39.208Z,42.50
2018-07-24T09:46:07.633Z,42.50
2018-07-24T09:48:36.269Z,42.70
2018-07-24T09:51:04.746Z,42.20
2018-07-24T09:53:33.248Z,42.80
2018-07-24T09:56:02.292Z,41.70
2018-07-24T09:58:30.877Z,41.70
2018-07-24T10:01:04.651Z,41.90
2018-07-24T10:03:33.132Z,43.10
2018-07-24T10:06:01.605Z,41.10
2018-07-24T10:08:30.154Z,40.60
2018-07-24T10:10:58.740Z,38.50
2018-07-24T10:13:27.241Z,40.00
2018-07-24T10:15:55.606Z,41.40
2018-07-24T10:18:24.124Z,40.70
2018-07-24T10:20:52.535Z,40.20
2018-07-24T10:23:21.718Z,39.00
2018-07-24T10:25:50.157Z,40.30
2018-07-24T10:28:18.629Z,39.40
2018-07-24T10:30:47.182Z,40.60
2018-07-24T10:33:15.749Z,39.90
2018-07-24T10:35:44.326Z,38.30
2018-07-24T10:38:12.792Z,38.80
2018-07-24T10:40:41.862Z,39.00
2018-07-24T10:43:10.384Z,38.90
2018-07-24T10:45:38.812Z,38.00
2018-07-24T10:48:07.293Z,36.90
2018-07-24T10:50:36.451Z,37.30
2018-07-24T10:53:05.514Z,39.50
2018-07-24T10:58:02.270Z,40.00
2018-07-24T11:00:30.813Z,39.50
2018-07-24T11:02:59.329Z,39.60
2018-07-24T11:05:27.957Z,39.70
2018-07-24T11:07:56.438Z,39.60
2018-07-24T11:10:24.893Z,37.70
2018-07-24T11:12:53.441Z,36.50
2018-07-24T11:15:22.593Z,37.10
2018-07-24T11:17:51.502Z,38.10
2018-07-24T11:20:20.018Z,38.60
2018-07-24T11:22:48.886Z,39.70
2018-07-24T11:25:17.133Z,40.80
2018-07-24T11:27:46.371Z,38.50
2018-07-24T11:30:14.912Z,36.90
2018-07-24T11:32:47.973Z,37.20
2018-07-24T11:35:16.501Z,36.10
2018-07-24T11:37:45.061Z,38.10
2018-07-24T11:40:13.582Z,36.30
2018-07-24T11:42:42.017Z,36.70
2018-07-24T11:47:39.695Z,35.60
2018-07-24T11:50:09.042Z,36.40
2018-07-24T11:52:37.508Z,38.00
2018-07-24T11:55:06.239Z,38.60
2018-07-24T11:57:34.895Z,38.20
2018-07-24T12:00:03.882Z,38.60
2018-07-24T12:02:32.350Z,39.30
2018-07-24T12:05:00.877Z,37.60
2018-07-24T12:07:29.463Z,36.40
2018-07-24T12:09:57.897Z,36.90
2018-07-24T12:12:26.320Z,37.00
2018-07-24T12:14:54.779Z,37.40
2018-07-24T12:17:23.401Z,37.10
2018-07-24T12:19:51.990Z,37.70
2018-07-24T12:22:20.437Z,38.20
2018-07-24T12:24:48.888Z,36.80
2018-07-24T12:27:17.497Z,37.50
2018-07-24T12:29:45.992Z,37.70
2018-07-24T12:32:14.476Z,36.00
2018-07-24T12:34:43.121Z,36.80
2018-07-24T12:37:12.434Z,36.40
2018-07-24T12:39:40.971Z,35.60
2018-07-24T12:42:09.450Z,35.70
2018-07-24T12:44:37.903Z,36.40
2018-07-24T12:47:06.393Z,35.60
2018-07-24T12:49:34.871Z,36.20
2018-07-24T12:52:03.356Z,36.90
2018-07-24T12:54:31.857Z,36.90
2018-07-24T12:57:00.430Z,36.60
2018-07-24T12:59:28.867Z,36.10
2018-07-24T13:01:57.376Z,35.90
2018-07-24T13:04:25.821Z,35.90
2018-07-24T13:06:54.260Z,36.00
2018-07-24T13:09:22.769Z,36.50
2018-07-24T13:11:51.309Z,37.80
2018-07-24T13:14:19.881Z,37.00
2018-07-24T13:16:48.364Z,37.40
2018-07-24T13:19:16.858Z,38.20
2018-07-24T13:21:45.348Z,37.10
2018-07-24T13:24:13.882Z,37.50
2018-07-24T13:26:42.405Z,36.10
2018-07-24T13:29:10.920Z,37.00
2018-07-24T13:31:39.524Z,36.60
2018-07-24T13:34:07.957Z,36.80
2018-07-24T13:36:36.437Z,37.40
2018-07-24T13:39:07.929Z,36.90
2018-07-24T13:41:36.381Z,36.60
2018-07-24T13:44:04.905Z,36.30
2018-07-24T13:46:33.532Z,36.40
2018-07-24T13:49:01.972Z,37.30
2018-07-24T13:51:30.516Z,37.20
2018-07-24T13:53:59.035Z,35.40
2018-07-24T13:56:27.684Z,35.40
2018-07-24T13:58:56.784Z,34.20
2018-07-24T14:01:25.254Z,35.30
2018-07-24T14:03:53.773Z,34.60
2018-07-24T14:06:26.795Z,34.90
2018-07-24T14:08:55.272Z,35.20
2018-07-24T14:11:23.729Z,36.30
2018-07-24T14:13:52.191Z,35.20
2018-07-24T14:16:20.750Z,34.90
2018-07-24T14:18:49.285Z,33.90
2018-07-24T14:21:17.732Z,34.50
2018-07-24T14:23:46.189Z,33.40
2018-07-24T14:26:14.688Z,34.10
2018-07-24T14:28:43.250Z,34.60
2018-07-24T14:31:11.745Z,34.30
2018-07-24T14:33:40.263Z,33.50
2018-07-24T14:36:08.758Z,33.70
2018-07-24T14:38:37.209Z,34.50
2018-07-24T14:41:05.710Z,33.30
2018-07-24T14:43:34.315Z,34.20
2018-07-24T14:46:03.056Z,33.90
2018-07-24T14:48:31.941Z,34.00
2018-07-24T14:51:00.452Z,34.80
2018-07-24T14:53:28.956Z,32.60
2018-07-24T14:55:57.465Z,32.70
2018-07-24T14:58:25.909Z,32.20
2018-07-24T15:00:54.720Z,32.10
2018-07-24T15:03:23.424Z,32.60
2018-07-24T15:06:05.951Z,33.50
2018-07-24T15:08:34.445Z,33.70
2018-07-24T15:11:02.894Z,33.80
2018-07-24T15:13:31.384Z,32.60
2018-07-24T15:15:59.945Z,33.70
2018-07-24T15:18:28.461Z,33.70
2018-07-24T15:20:56.883Z,34.20
2018-07-24T15:23:25.408Z,34.80
2018-07-24T15:25:53.856Z,35.20
2018-07-24T15:28:22.403Z,34.40
2018-07-24T15:30:50.889Z,34.60
2018-07-24T15:33:19.468Z,34.30
2018-07-24T15:35:47.893Z,34.20
2018-07-24T15:38:16.479Z,34.60
2018-07-24T15:40:45.042Z,34.50
2018-07-24T15:43:13.768Z,35.20
2018-07-24T15:45:42.237Z,35.60
2018-07-24T15:48:10.729Z,34.70
2018-07-24T15:50:39.186Z,35.50
2018-07-24T15:53:07.901Z,35.10
2018-07-24T15:55:36.376Z,35.60
2018-07-24T15:58:04.962Z,36.20
2018-07-24T16:00:33.463Z,35.70
2018-07-24T16:03:01.909Z,35.80
2018-07-24T16:05:30.537Z,35.40
2018-07-24T16:07:58.996Z,35.90
2018-07-24T16:10:27.520Z,36.00
2018-07-24T16:12:56.637Z,35.50
2018-07-24T16:15:25.238Z,36.20
2018-07-24T16:17:53.701Z,35.60
2018-07-24T16:20:22.181Z,35.80
2018-07-24T16:22:50.654Z,35.80
2018-07-24T16:25:19.162Z,36.30
2018-07-24T16:27:47.621Z,36.90
2018-07-24T16:30:16.254Z,36.60
2018-07-24T16:32:44.789Z,37.10
2018-07-24T16:35:13.236Z,36.70
2018-07-24T16:37:41.654Z,36.40
2018-07-24T16:40:10.213Z,37.00
2018-07-24T16:42:38.694Z,37.00
2018-07-24T16:45:07.228Z,37.20
2018-07-24T16:47:35.679Z,37.80
2018-07-24T16:50:04.605Z,38.00
2018-07-24T16:52:33.017Z,37.90
2018-07-24T16:55:02.281Z,38.30
2018-07-24T16:57:30.769Z,38.90
2018-07-24T16:59:59.332Z,38.50
2018-07-24T17:02:27.867Z,38.20
2018-07-24T17:04:56.367Z,38.30
2018-07-24T17:07:24.840Z,38.30
2018-07-24T17:12:21.757Z,37.80
2018-07-24T17:14:50.338Z,38.50
2018-07-24T17:17:18.811Z,38.60
2018-07-24T17:19:47.343Z,38.60
2018-07-24T17:22:15.745Z,39.90
2018-07-24T17:24:44.216Z,38.30
2018-07-24T17:27:12.722Z,38.80
2018-07-24T17:29:41.381Z,37.90
2018-07-24T17:32:10.065Z,38.00
2018-07-24T17:34:38.881Z,37.80
2018-07-24T17:37:07.320Z,37.80
2018-07-24T17:39:35.741Z,37.90
2018-07-24T17:42:04.168Z,37.70
2018-07-24T17:44:33.338Z,38.80
2018-07-24T17:47:01.781Z,38.00
2018-07-24T17:49:31.128Z,37.50
2018-07-24T17:51:59.649Z,37.50
2018-07-24T17:54:28.085Z,38.30
2018-07-24T17:56:56.898Z,37.50
2018-07-24T17:59:25.336Z,37.90
2018-07-24T18:01:53.784Z,38.10
2018-07-24T18:04:22.329Z,37.20
2018-07-24T18:06:50.821Z,37.50
2018-07-24T18:09:19.533Z,36.90
2018-07-24T18:11:48.105Z,37.30
2018-07-24T18:14:16.538Z,37.50
2018-07-24T18:16:45.026Z,38.20
2018-07-24T18:19:13.535Z,38.70
2018-07-24T18:21:41.984Z,38.40
2018-07-24T18:24:10.537Z,39.10
2018-07-24T18:26:39.240Z,40.30
2018-07-24T18:29:07.710Z,40.80
2018-07-24T18:31:36.151Z,41.10
2018-07-24T18:34:04.637Z,41.70
2018-07-24T18:36:33.456Z,40.20
2018-07-24T18:39:01.999Z,40.90
2018-07-24T18:41:30.458Z,42.00
2018-07-24T18:43:59.631Z,40.70
2018-07-24T18:46:28.327Z,42.00
2018-07-24T18:48:56.931Z,40.40
2018-07-24T18:51:25.399Z,41.90
2018-07-24T18:53:53.889Z,42.60
2018-07-24T18:56:22.697Z,43.30
2018-07-24T18:58:51.513Z,44.00
2018-07-24T19:01:20.053Z,43.80
2018-07-24T19:03:48.472Z,44.50
2018-07-24T19:06:16.912Z,45.20
2018-07-24T19:08:45.317Z,45.70
2018-07-24T19:11:13.868Z,46.30
2018-07-24T19:13:42.263Z,46.30
2018-07-24T19:16:10.686Z,46.60
2018-07-24T19:18:39.155Z,47.00
2018-07-24T19:21:07.751Z,47.30
2018-07-24T19:23:36.978Z,47.20
2018-07-24T19:26:05.541Z,48.00
2018-07-24T19:28:34.282Z,47.30
2018-07-24T19:31:02.767Z,47.80
2018-07-24T19:33:31.180Z,48.00
2018-07-24T19:35:59.873Z,48.30
2018-07-24T19:38:28.768Z,47.80
2018-07-24T19:40:57.378Z,48.80
2018-07-24T19:43:26.149Z,49.30
2018-07-24T19:45:54.706Z,49.30
2018-07-24T19:48:23.201Z,49.10
2018-07-24T19:50:52.206Z,49.70
2018-07-24T19:53:20.677Z,49.80
2018-07-24T19:55:49.216Z,50.10
2018-07-24T19:58:17.697Z,50.00
2018-07-24T20:00:46.164Z,50.60
2018-07-24T20:03:14.641Z,51.30
2018-07-24T20:05:43.121Z,51.30
2018-07-24T20:08:11.623Z,51.60
2018-07-24T20:10:40.138Z,51.60
2018-07-24T20:13:08.597Z,51.90
2018-07-24T20:15:37.054Z,50.90
2018-07-24T20:18:05.515Z,50.60
2018-07-24T20:20:34.953Z,50.30
2018-07-24T20:25:31.685Z,50.10
2018-07-24T20:28:00.141Z,50.10
2018-07-24T20:32:56.769Z,50.30
2018-07-24T20:37:53.430Z,50.20
2018-07-24T20:40:21.913Z,50.20
2018-07-24T20:42:50.376Z,50.60
2018-07-24T20:45:18.868Z,50.40
2018-07-24T20:50:15.677Z,50.20
2018-07-24T20:52:44.086Z,50.30
2018-07-24T20:55:12.572Z,50.70
2018-07-24T20:57:41.032Z,51.10
2018-07-24T21:00:09.540Z,51.60
2018-07-24T21:02:37.964Z,51.30
2018-07-24T21:05:06.465Z,51.30
2018-07-24T21:07:34.985Z,52.10
2018-07-24T21:10:05.693Z,51.70
2018-07-24T21:12:34.124Z,52.10
2018-07-24T21:15:03.217Z,52.70
2018-07-24T21:17:31.667Z,51.60
2018-07-24T21:20:00.092Z,52.20
2018-07-24T21:22:28.596Z,52.40
2018-07-24T21:29:53.454Z,52.60
2018-07-24T21:32:21.912Z,53.00
2018-07-24T21:34:50.447Z,52.60
2018-07-24T21:37:18.908Z,53.10
2018-07-24T21:39:48.062Z,52.50
2018-07-24T21:42:16.596Z,52.70
2018-07-24T21:44:45.157Z,52.60
2018-07-24T21:47:13.905Z,52.70
2018-07-24T21:49:42.368Z,52.50
2018-07-24T21:52:10.880Z,52.90
2018-07-24T21:54:39.563Z,52.80
2018-07-24T21:57:08.240Z,52.80
2018-07-24T21:59:36.713Z,53.10
2018-07-24T22:02:05.500Z,53.50
2018-07-24T22:04:33.977Z,53.30
2018-07-24T22:07:02.993Z,53.90
2018-07-24T22:09:31.558Z,54.20
2018-07-24T22:12:00.876Z,53.90
2018-07-24T22:14:29.334Z,54.40
2018-07-24T22:16:58.029Z,54.70
2018-07-24T22:19:27.330Z,55.70
2018-07-24T22:21:55.916Z,55.10
2018-07-24T22:24:24.392Z,55.70
2018-07-24T22:26:52.867Z,55.80
2018-07-24T22:29:21.401Z,55.90
2018-07-24T22:31:49.851Z,56.40
2018-07-24T22:34:18.189Z,56.90
2018-07-24T22:36:47.443Z,56.60
2018-07-24T22:39:15.837Z,56.80
2018-07-24T22:41:44.377Z,57.00
2018-07-24T22:44:12.716Z,57.60
2018-07-24T22:46:41.405Z,57.90
2018-07-24T22:49:09.886Z,58.20
2018-07-24T22:51:38.226Z,58.30
2018-07-24T22:56:34.812Z,59.10
2018-07-24T22:59:03.199Z,59.10
2018-07-24T23:01:31.576Z,59.60
2018-07-24T23:04:00.367Z,59.80
2018-07-24T23:06:28.783Z,60.00
2018-07-24T23:08:57.148Z,60.50
2018-07-24T23:11:25.505Z,61.70
2018-07-24T23:13:53.906Z,60.70
2018-07-24T23:16:22.378Z,61.10
2018-07-24T23:18:51.405Z,61.00
2018-07-24T23:21:19.724Z,61.70
2018-07-24T23:23:48.093Z,61.60
2018-07-24T23:26:16.462Z,62.20
2018-07-24T23:28:44.860Z,62.00
2018-07-24T23:31:13.211Z,62.20
2018-07-24T23:33:41.565Z,62.00
2018-07-24T23:36:09.891Z,62.60
2018-07-24T23:38:38.230Z,62.60
2018-07-24T23:41:06.601Z,63.20
2018-07-24T23:43:34.947Z,62.60
2018-07-24T23:46:03.329Z,63.50
2018-07-24T23:48:31.697Z,64.90
2018-07-24T23:51:00.047Z,63.90
2018-07-24T23:53:28.516Z,64.60
2018-07-24T23:55:56.890Z,64.10
2018-07-24T23:58:25.799Z,64.80
